HomeShort term forecast

Short term forecast

Graphical weather forecast for the next 48 hours for Montreal:
Short term forecast
This weather forecast is automatically refreshed every 3 hours.

Hourly Experimental Forecast for the next 48 hours ®

Overall summary: Mostly cloudy throughout the day.

 Date & Hour   Temp   Feel   Baro   Hum   Speed & Bearing   Precipitation   Visibility   Cloud cover   Conditions 
 21/11/2017 - 11:00  5.7°C  4.5°C  1007.8 hPa  71%  6.1 km/h   --  16.1km  43%  Partly Cloudy 
 21/11/2017 - 12:00  6.7°C  4.8°C  1007.3 hPa  70%  9.3 km/h   --  16.1km  44%  Partly Cloudy 
 21/11/2017 - 13:00  7.2°C  4.8°C  1007.1 hPa  69%  12.7 km/h   --  16.1km  46%  Partly Cloudy 
 21/11/2017 - 14:00  7.1°C  4.3°C  1007.3 hPa  68%  15.3 km/h   --  16.1km  48%  Partly Cloudy 
 21/11/2017 - 15:00  6.6°C  3.4°C  1007.7 hPa  68%  16.7 km/h   --  16.1km  50%  Partly Cloudy 
 21/11/2017 - 16:00  5.8°C  2.4°C  1008.2 hPa  69%  17.7 km/h   --  16.1km  50%  Partly Cloudy 
 21/11/2017 - 17:00  5.0°C  1.3°C  1008.5 hPa  71%  17.8 km/h   --  16.1km  43%  Partly Cloudy 
 21/11/2017 - 18:00  3.9°C  0.1°C  1008.9 hPa  73%  17.5 km/h   --  16.1km  33%  Partly Cloudy 
 21/11/2017 - 19:00  3.1°C  -1.0°C  1009.2 hPa  77%  17.2 km/h   --  16.1km  32%  Partly Cloudy 
 21/11/2017 - 20:00  2.5°C  -1.6°C  1009.4 hPa  80%  17.1 km/h   --  16.1km  45%  Partly Cloudy 
 21/11/2017 - 21:00  2.2°C  -2.0°C  1009.5 hPa  83%  17.1 km/h   --  16.1km  66%  Mostly Cloudy 
 21/11/2017 - 22:00  2.0°C  -2.2°C  1009.7 hPa  87%  16.7 km/h   --  16.1km  82%  Mostly Cloudy 
 21/11/2017 - 23:00  1.9°C  -2.2°C  1009.8 hPa  89%  15.8 km/h   0.01 mm/h  16.1km  85%  Mostly Cloudy 
 22/11/2017 - 00:00  2.0°C  -1.8°C  1010.1 hPa  92%  14.6 km/h   0.03 mm/h  16.1km  88%  Mostly Cloudy 
 22/11/2017 - 01:00  2.2°C  -1.4°C  1010.2 hPa  93%  13.7 km/h   0.08 mm/h  16.1km  91%  Mostly Cloudy 
 22/11/2017 - 02:00  2.4°C  -1.1°C  1010.2 hPa  94%  13.2 km/h   0.18 mm/h  16.1km  94%  Overcast 
 22/11/2017 - 03:00  2.7°C  -0.7°C  1010.1 hPa  95%  12.9 km/h   0.38 mm/h  16.1km  98%  Overcast 
 22/11/2017 - 04:00  3.0°C  -0.4°C  1010.3 hPa  94%  12.8 km/h   0.53 mm/h  16.1km  100%  Overcast 
 22/11/2017 - 05:00  3.2°C  -0.1°C  1010.8 hPa  93%  12.8 km/h   0.51 mm/h  16.1km  100%  Overcast 
 22/11/2017 - 06:00  3.3°C  0.0°C  1011.5 hPa  93%  13.0 km/h   0.40 mm/h  7.4km  100%  Overcast 
 22/11/2017 - 07:00  3.4°C  0.0°C  1012.2 hPa  91%  13.4 km/h   0.30 mm/h  2.1km  100%  Foggy 
 22/11/2017 - 08:00  3.4°C  -0.1°C  1012.9 hPa  89%  14.2 km/h   0.16 mm/h  5.4km  96%  Overcast 
 22/11/2017 - 09:00  3.4°C  -0.2°C  1013.5 hPa  86%  15.1 km/h   0.05 mm/h  13.0km  91%  Mostly Cloudy 
 22/11/2017 - 10:00  3.5°C  -0.4°C  1014.0 hPa  83%  16.6 km/h   0.01 mm/h  16.1km  85%  Mostly Cloudy 
 22/11/2017 - 11:00  3.5°C  -0.5°C  1014.5 hPa  78%  18.1 km/h   0.01 mm/h  16.1km  73%  Mostly Cloudy 
 22/11/2017 - 12:00  3.5°C  -0.8°C  1014.9 hPa  73%  20.1 km/h   --  16.1km  59%  Partly Cloudy 
 22/11/2017 - 13:00  3.2°C  -1.4°C  1015.5 hPa  70%  22.0 km/h   --  16.1km  46%  Partly Cloudy 
 22/11/2017 - 14:00  2.5°C  -2.2°C  1016.2 hPa  69%  21.4 km/h   --  16.1km  36%  Partly Cloudy 
 22/11/2017 - 15:00  1.5°C  -3.4°C  1017.1 hPa  69%  20.0 km/h   --  16.1km  28%  Partly Cloudy 
 22/11/2017 - 16:00  0.4°C  -4.6°C  1017.9 hPa  70%  18.7 km/h   --  16.1km  22%  Clear 
 22/11/2017 - 17:00  -0.7°C  -5.8°C  1018.9 hPa  72%  17.9 km/h   --  16.1km  23%  Clear 
 22/11/2017 - 18:00  -1.9°C  -7.1°C  1019.9 hPa  75%  17.1 km/h   --  16.1km  23%  Clear 
 22/11/2017 - 19:00  -2.9°C  -8.2°C  1020.7 hPa  77%  16.4 km/h   --  16.1km  23%  Clear 
 22/11/2017 - 20:00  -3.7°C  -9.0°C  1021.1 hPa  79%  15.3 km/h   --  16.1km  19%  Clear 
 22/11/2017 - 21:00  -4.4°C  -9.6°C  1021.3 hPa  81%  14.2 km/h   --  16.1km  14%  Clear 
 22/11/2017 - 22:00  -4.9°C  -10.1°C  1021.3 hPa  82%  13.2 km/h   --  16.1km  9%  Clear 
 22/11/2017 - 23:00  -5.4°C  -10.4°C  1021.2 hPa  84%  12.3 km/h   --  16.1km  6%  Clear 
 23/11/2017 - 00:00  -5.7°C  -10.5°C  1020.9 hPa  85%  11.3 km/h   --  16.1km  4%  Clear 
 23/11/2017 - 01:00  -5.8°C  -10.5°C  1020.6 hPa  85%  10.8 km/h   --  16.1km  6%  Clear 
 23/11/2017 - 02:00  -5.8°C  -10.3°C  1020.4 hPa  84%  10.1 km/h   --  16.1km  17%  Clear 
 23/11/2017 - 03:00  -5.7°C  -10.0°C  1020.2 hPa  83%  9.6 km/h   0.01 mm/h  16.1km  33%  Partly Cloudy 
 23/11/2017 - 04:00  -5.6°C  -9.9°C  1020.0 hPa  82%  9.5 km/h   0.01 mm/h  16.1km  46%  Partly Cloudy 
 23/11/2017 - 05:00  -5.6°C  -9.7°C  1019.9 hPa  81%  9.2 km/h   0.01 mm/h  16.1km  50%  Partly Cloudy 
 23/11/2017 - 06:00  -5.5°C  -9.7°C  1019.9 hPa  81%  9.3 km/h   --  16.1km  50%  Partly Cloudy 
 23/11/2017 - 07:00  -5.1°C  -9.4°C  1019.7 hPa  79%  9.8 km/h   --  16.1km  49%  Partly Cloudy 
 23/11/2017 - 08:00  -4.3°C  -8.7°C  1019.3 hPa  75%  10.9 km/h   --  16.1km  49%  Partly Cloudy 
 23/11/2017 - 09:00  -3.2°C  -7.8°C  1018.8 hPa  70%  12.4 km/h   --  16.1km  50%  Partly Cloudy 
 23/11/2017 - 10:00  -2.2°C  -6.8°C  1018.0 hPa  67%  13.6 km/h   --  16.1km  53%  Partly Cloudy 
Test

 

Past weather and reports

Past weatherFind in this section the past weather conditions, weather archive, graphics, reports and statistics.

Current conditions

Current weather condition for MontrealAll you need to know about the current weather conditions for Montreal. Weather data is updated every 10 minutes.

Weather forecast

Current Montreal weatherSince 2004, celinium.com website provides accurate weather forecast for Montreal's island.